Time;durP1;ratioP1;P1;durP2;ratioP2;P2;SDS_P1;SDS_P2;PMS_P1;PMS_P2;Temp;Humidity;BMP_temperature;BMP_pressure;BME280_temperature;BME280_humidity;BME280_pressure;Samples;Min_cycle;Max_cycle;Signal;HPM_P1;HPM_P2
2022/01/13 00:00:01;;;;;;;30.63;16.17;;;0.40;70.10;;;;;;5062522;28;20238;-75
2022/01/13 00:02:32;;;;;;;28.58;18.02;;;0.40;70.00;;;;;;5058520;28;20332;-77
2022/01/13 00:04:59;;;;;;;26.00;16.92;;;0.50;69.80;;;;;;5060686;28;20234;-78
2022/01/13 00:07:26;;;;;;;26.40;15.52;;;0.50;69.20;;;;;;5058686;28;20207;-76
2022/01/13 00:09:53;;;;;;;26.58;17.08;;;0.50;69.20;;;;;;5058955;28;20233;-76
2022/01/13 00:12:24;;;;;;;24.17;16.63;;;0.40;69.30;;;;;;5061775;28;20226;-76
2022/01/13 00:17:56;;;;;;;27.15;17.45;;;0.40;71.00;;;;;;5063919;28;20442;-76
2022/01/13 00:20:37;;;;;;;31.42;18.48;;;0.30;70.80;;;;;;5060860;28;20194;-76
2022/01/13 00:25:54;;;;;;;26.70;17.55;;;0.30;71.40;;;;;;5055717;28;20206;-76
2022/01/13 00:28:23;;;;;;;24.27;16.63;;;0.30;71.20;;;;;;5055493;28;20249;-77
2022/01/13 00:30:54;;;;;;;28.00;18.70;;;0.30;71.20;;;;;;5054785;28;20206;-75
2022/01/13 00:33:24;;;;;;;26.85;18.15;;;0.20;71.50;;;;;;5054993;28;20702;-76
2022/01/13 00:35:52;;;;;;;28.40;17.30;;;0.20;72.00;;;;;;5055209;28;20214;-77
2022/01/13 00:38:19;;;;;;;24.65;16.83;;;0.20;71.80;;;;;;5060862;28;20206;-77
2022/01/13 00:40:46;;;;;;;27.95;18.20;;;0.20;71.80;;;;;;5071419;28;20215;-77
2022/01/13 00:43:13;;;;;;;28.08;17.25;;;0.10;71.80;;;;;;5073578;28;20223;-78
2022/01/13 00:45:46;;;;;;;29.20;17.45;;;0.10;72.60;;;;;;5071658;28;20203;-78
2022/01/13 00:48:13;;;;;;;25.55;16.90;;;0.10;72.30;;;;;;5054789;28;20246;-78
2022/01/13 00:50:40;;;;;;;28.08;18.27;;;0.20;72.60;;;;;;5044830;28;20207;-77
2022/01/13 00:53:07;;;;;;;31.42;18.90;;;0.20;72.20;;;;;;5038911;28;20235;-76
2022/01/13 00:55:46;;;;;;;25.67;16.88;;;0.30;72.10;;;;;;5039175;28;20198;-77
2022/01/13 00:58:13;;;;;;;31.65;18.23;;;0.40;71.70;;;;;;5037340;28;20206;-77
2022/01/13 01:00:41;;;;;;;26.35;17.25;;;0.40;71.40;;;;;;5037803;28;20214;-77
2022/01/13 01:03:10;;;;;;;27.85;17.83;;;0.50;71.00;;;;;;5038623;28;20223;-78
2022/01/13 01:05:37;;;;;;;25.65;17.00;;;0.40;70.20;;;;;;5044057;28;20253;-77
2022/01/13 01:08:05;;;;;;;30.35;18.50;;;0.40;70.60;;;;;;5055533;28;20829;-76
2022/01/13 01:10:32;;;;;;;27.70;17.30;;;0.30;71.00;;;;;;5056666;28;20206;-78
2022/01/13 01:13:11;;;;;;;25.77;18.05;;;0.20;71.30;;;;;;5247552;22;20234;-78
2022/01/13 01:15:41;;;;;;;31.58;17.75;;;0.20;71.80;;;;;;5075015;28;20209;-77
2022/01/13 01:18:20;;;;;;;28.95;17.58;;;0.20;72.10;;;;;;5074345;28;20206;-76
2022/01/13 01:21:02;;;;;;;30.80;18.45;;;0.20;72.00;;;;;;5074610;28;20210;-77
2022/01/13 01:23:41;;;;;;;29.90;18.08;;;0.30;72.10;;;;;;5074789;28;20244;-76
2022/01/13 01:26:22;;;;;;;29.92;17.75;;;0.20;72.00;;;;;;5049294;28;20194;-76
2022/01/13 01:28:57;;;;;;;27.90;18.48;;;0.20;72.20;;;;;;5051156;28;20195;-77
2022/01/13 01:31:29;;;;;;;29.63;18.10;;;0.30;72.80;;;;;;5051451;28;20201;-77
2022/01/13 01:34:18;;;;;;;27.75;17.63;;;0.30;72.80;;;;;;5052185;28;20309;-77
2022/01/13 01:36:46;;;;;;;26.90;19.00;;;0.30;72.80;;;;;;5070644;28;20210;-77
2022/01/13 01:39:14;;;;;;;27.48;18.15;;;0.30;72.80;;;;;;5066372;28;20206;-77
2022/01/13 01:41:44;;;;;;;25.95;17.13;;;0.30;72.90;;;;;;5059685;28;20214;-76
2022/01/13 01:44:12;;;;;;;25.27;16.40;;;0.30;72.80;;;;;;5058797;28;20233;-78
2022/01/13 01:46:44;;;;;;;27.83;18.15;;;0.30;73.30;;;;;;5059661;28;20654;-77
2022/01/13 01:49:16;;;;;;;27.23;17.42;;;0.30;73.30;;;;;;5059625;28;20286;-77
2022/01/13 01:51:46;;;;;;;26.35;17.05;;;0.30;73.30;;;;;;5061670;28;20229;-78
2022/01/13 01:54:16;;;;;;;28.92;17.45;;;0.30;73.60;;;;;;5075356;28;20254;-79
2022/01/13 01:56:44;;;;;;;24.60;17.08;;;0.30;73.70;;;;;;5075119;28;20190;-80
2022/01/13 01:59:15;;;;;;;27.90;16.90;;;0.30;73.30;;;;;;5075822;28;20218;-76
2022/01/13 02:01:42;;;;;;;27.05;17.23;;;0.20;73.20;;;;;;5073172;28;20229;-76
2022/01/13 02:04:09;;;;;;;29.55;18.30;;;0.10;73.40;;;;;;5065593;28;20313;-77
2022/01/13 02:06:38;;;;;;;28.40;19.10;;;0.10;73.90;;;;;;5061541;28;20263;-78
2022/01/13 02:09:08;;;;;;;31.77;19.38;;;0.10;74.20;;;;;;5060337;28;20202;-76
2022/01/13 02:11:42;;;;;;;30.75;18.80;;;0.00;74.50;;;;;;5058141;28;20210;-77
2022/01/13 02:14:21;;;;;;;29.25;18.15;;;0.00;74.50;;;;;;5060120;28;20265;-75
2022/01/13 02:16:50;;;;;;;26.63;18.48;;;-0.10;74.70;;;;;;5058700;28;20214;-76
2022/01/13 02:19:18;;;;;;;28.90;18.73;;;-0.10;75.60;;;;;;5058999;28;20212;-78
2022/01/13 02:21:47;;;;;;;27.75;17.38;;;-0.10;75.00;;;;;;5065906;28;20273;-77
2022/01/13 02:24:14;;;;;;;32.13;18.85;;;-0.20;75.20;;;;;;5070463;28;20237;-77
2022/01/13 02:26:41;;;;;;;31.20;20.00;;;-0.20;75.80;;;;;;5071977;28;20221;-77
2022/01/13 02:29:08;;;;;;;29.50;18.55;;;-0.20;76.30;;;;;;5062680;28;20238;-76
2022/01/13 02:31:34;;;;;;;31.00;18.63;;;-0.30;76.90;;;;;;5055429;28;20222;-77
2022/01/13 02:34:02;;;;;;;31.90;20.20;;;-0.30;77.60;;;;;;5060676;28;20241;-76
2022/01/13 02:36:30;;;;;;;31.15;17.55;;;-0.30;76.90;;;;;;5068099;28;20202;-78
2022/01/13 02:39:00;;;;;;;27.70;18.42;;;-0.40;76.80;;;;;;5070752;28;20279;-77
2022/01/13 02:41:28;;;;;;;27.00;18.00;;;-0.40;77.70;;;;;;5064375;28;20217;-77
2022/01/13 02:43:58;;;;;;;32.70;19.52;;;-0.50;78.90;;;;;;5060191;28;20222;-76
2022/01/13 02:46:43;;;;;;;30.90;18.10;;;-0.50;79.60;;;;;;5059182;28;20237;-76
2022/01/13 02:49:12;;;;;;;32.35;18.95;;;-0.50;80.40;;;;;;5060837;28;20207;-76
2022/01/13 02:51:42;;;;;;;30.38;19.50;;;-0.60;80.80;;;;;;5058469;28;20203;-76
2022/01/13 02:54:11;;;;;;;28.20;19.13;;;-0.60;81.60;;;;;;5059605;28;20276;-75
2022/01/13 02:56:39;;;;;;;32.55;20.30;;;-0.70;82.40;;;;;;5063639;28;20234;-77
2022/01/13 02:59:07;;;;;;;29.98;19.70;;;-0.60;83.20;;;;;;5059199;28;20217;-76
2022/01/13 03:01:35;;;;;;;36.67;20.38;;;-0.70;83.30;;;;;;5057109;28;20600;-76
2022/01/13 03:04:06;;;;;;;35.80;20.77;;;-0.70;84.30;;;;;;5056930;28;20272;-75
2022/01/13 03:06:35;;;;;;;36.53;22.20;;;-0.80;84.70;;;;;;5057150;28;20213;-77
2022/01/13 03:09:04;;;;;;;32.35;19.70;;;-0.80;85.20;;;;;;5056204;28;20296;-76
2022/01/13 03:11:35;;;;;;;36.97;22.05;;;-0.80;85.80;;;;;;5056805;28;20627;-76
2022/01/13 03:14:04;;;;;;;33.28;20.45;;;-0.80;86.10;;;;;;5056827;28;20230;-76
2022/01/13 03:16:31;;;;;;;36.30;21.15;;;-0.80;86.50;;;;;;5056365;28;20209;-76
2022/01/13 03:18:58;;;;;;;33.53;21.80;;;-0.80;87.60;;;;;;5056531;28;20199;-77
2022/01/13 03:21:25;;;;;;;36.40;22.20;;;-0.90;87.70;;;;;;5056653;28;20597;-77
2022/01/13 03:23:52;;;;;;;29.80;20.27;;;-0.90;88.70;;;;;;5056095;28;20362;-75
2022/01/13 03:26:20;;;;;;;34.08;20.77;;;-0.90;88.70;;;;;;5056655;28;20293;-77
2022/01/13 03:28:54;;;;;;;33.65;20.75;;;-1.00;88.60;;;;;;5057083;28;20285;-75
2022/01/13 03:31:22;;;;;;;34.00;21.98;;;-1.00;89.20;;;;;;5056916;28;20601;-76
2022/01/13 03:33:50;;;;;;;37.90;21.95;;;-1.00;89.70;;;;;;5055993;28;20234;-75
2022/01/13 03:36:18;;;;;;;31.25;20.67;;;-1.00;90.00;;;;;;5057269;28;20220;-77
2022/01/13 03:38:46;;;;;;;37.22;21.58;;;-1.00;90.20;;;;;;5055961;28;20627;-77
2022/01/13 03:41:13;;;;;;;38.60;23.00;;;-1.10;90.70;;;;;;5056596;28;20266;-75
2022/01/13 03:43:40;;;;;;;34.53;20.52;;;-1.00;91.00;;;;;;5056628;28;20258;-76
2022/01/13 03:46:10;;;;;;;37.03;20.85;;;-1.10;91.10;;;;;;5056849;28;20210;-75
2022/01/13 03:48:37;;;;;;;33.38;22.00;;;-1.10;91.20;;;;;;5056432;28;20209;-76
2022/01/13 03:51:04;;;;;;;37.13;22.90;;;-1.10;91.30;;;;;;5056107;28;20213;-77
2022/01/13 03:54:56;;;;;;;40.72;23.33;;;-1.10;91.50;;;;;;5055607;28;20675;-76
2022/01/13 03:58:08;;;;;;;29.95;19.77;;;-1.10;91.70;;;;;;5056291;28;20238;-75
2022/01/13 04:01:12;;;;;;;33.42;20.33;;;-1.20;91.90;;;;;;5023191;28;20217;-75
2022/01/13 04:03:40;;;;;;;38.13;20.95;;;-1.20;92.10;;;;;;5044556;28;20267;-76
2022/01/13 04:06:28;;;;;;;30.10;19.10;;;-1.20;92.20;;;;;;5056469;28;20249;-75
2022/01/13 04:08:56;;;;;;;37.55;22.13;;;-1.20;92.40;;;;;;5064959;28;20203;-75
2022/01/13 04:11:26;;;;;;;32.70;20.70;;;-1.20;92.70;;;;;;5073322;28;20217;-76
2022/01/13 04:13:56;;;;;;;42.30;21.73;;;-1.20;92.70;;;;;;5057044;28;20230;-76
2022/01/13 04:16:27;;;;;;;34.03;20.83;;;-1.20;92.70;;;;;;5057553;28;20605;-75
2022/01/13 04:18:59;;;;;;;36.97;21.05;;;-1.20;92.80;;;;;;5057452;28;20651;-77
2022/01/13 04:21:26;;;;;;;33.10;21.23;;;-1.20;92.80;;;;;;5057259;28;20218;-76
2022/01/13 04:23:56;;;;;;;35.75;21.17;;;-1.20;93.10;;;;;;5056512;28;20222;-77
2022/01/13 04:26:28;;;;;;;37.17;21.80;;;-1.30;93.70;;;;;;5057764;28;20213;-76
2022/01/13 04:29:02;;;;;;;34.60;22.33;;;-1.30;93.90;;;;;;5058085;28;20299;-76
2022/01/13 04:31:29;;;;;;;43.25;24.08;;;-1.30;94.10;;;;;;5063253;28;20201;-76
2022/01/13 04:33:57;;;;;;;36.08;22.80;;;-1.40;94.50;;;;;;5071481;28;20279;-76
2022/01/13 04:36:24;;;;;;;40.20;22.50;;;-1.40;95.30;;;;;;5074407;28;20269;-76
2022/01/13 04:38:51;;;;;;;41.38;23.85;;;-1.40;95.50;;;;;;5074546;28;20278;-78
2022/01/13 04:41:28;;;;;;;40.80;23.83;;;-1.40;95.80;;;;;;5056210;28;20543;-76
2022/01/13 04:43:55;;;;;;;40.85;24.30;;;-1.50;96.10;;;;;;5055934;28;20226;-76
2022/01/13 04:46:22;;;;;;;37.97;22.10;;;-1.50;96.20;;;;;;5055319;28;20520;-76
2022/01/13 04:48:49;;;;;;;41.47;24.05;;;-1.50;96.20;;;;;;5055276;28;20582;-76
2022/01/13 04:51:18;;;;;;;35.30;22.25;;;-1.50;96.70;;;;;;5054713;28;20674;-76
2022/01/13 04:53:44;;;;;;;38.00;22.75;;;-1.50;96.90;;;;;;5056521;28;20643;-76
2022/01/13 04:56:14;;;;;;;39.03;24.67;;;-1.50;97.20;;;;;;5055891;28;20305;-75
2022/01/13 04:58:42;;;;;;;42.67;23.40;;;-1.50;97.50;;;;;;5055942;28;20199;-76
2022/01/13 05:01:09;;;;;;;40.55;22.98;;;-1.50;97.50;;;;;;5057847;28;20266;-77
2022/01/13 05:03:36;;;;;;;36.90;22.40;;;-1.50;97.80;;;;;;5052627;28;20622;-77
2022/01/13 05:06:13;;;;;;;42.85;23.55;;;-1.50;97.80;;;;;;5052538;28;20630;-77
2022/01/13 05:08:41;;;;;;;37.05;22.23;;;-1.50;97.90;;;;;;5053581;28;20212;-78
2022/01/13 05:11:08;;;;;;;37.03;22.30;;;-1.50;97.90;;;;;;5052759;28;20306;-78
2022/01/13 05:13:34;;;;;;;34.88;20.50;;;-1.50;97.90;;;;;;5052590;28;20223;-76
2022/01/13 05:16:01;;;;;;;37.13;24.00;;;-1.50;98.10;;;;;;5052901;28;20220;-77
2022/01/13 05:18:42;;;;;;;39.85;22.60;;;-1.50;98.20;;;;;;5052604;28;20201;-77
2022/01/13 05:21:19;;;;;;;41.88;23.52;;;-1.60;98.30;;;;;;5052730;28;20194;-78
2022/01/13 05:23:49;;;;;;;41.78;23.20;;;-1.50;98.70;;;;;;5052606;28;20214;-77
2022/01/13 05:26:15;;;;;;;43.72;24.85;;;-1.50;98.70;;;;;;5053365;28;20206;-77
2022/01/13 05:28:42;;;;;;;43.80;23.67;;;-1.50;98.80;;;;;;5052901;28;20293;-78
2022/01/13 05:31:09;;;;;;;38.28;22.85;;;-1.50;99.00;;;;;;5053948;28;20697;-76
2022/01/13 05:33:36;;;;;;;40.58;23.80;;;-1.50;98.90;;;;;;5056620;28;20233;-76
2022/01/13 05:36:04;;;;;;;36.70;22.30;;;-1.60;99.00;;;;;;5053975;28;20214;-75
2022/01/13 05:38:31;;;;;;;42.13;24.52;;;-1.60;99.10;;;;;;5053603;28;20210;-77
2022/01/13 05:40:59;;;;;;;40.15;23.30;;;-1.60;99.30;;;;;;5052917;28;20297;-76
2022/01/13 05:43:26;;;;;;;42.58;23.55;;;-1.70;99.20;;;;;;5053992;28;20225;-76
2022/01/13 05:45:53;;;;;;;38.08;24.00;;;-1.70;99.40;;;;;;5056871;28;20238;-76
2022/01/13 05:48:20;;;;;;;41.42;24.42;;;-1.70;99.50;;;;;;5057901;28;20203;-76
2022/01/13 05:50:47;;;;;;;41.05;21.55;;;-1.70;99.60;;;;;;5056169;28;20289;-77
2022/01/13 05:53:20;;;;;;;40.08;23.48;;;-1.70;99.70;;;;;;5054552;28;20254;-76
2022/01/13 05:55:47;;;;;;;38.40;22.80;;;-1.70;99.80;;;;;;5052775;28;20210;-77
2022/01/13 05:58:16;;;;;;;39.63;23.15;;;-1.70;99.90;;;;;;5052132;28;20202;-78
2022/01/13 06:00:43;;;;;;;37.72;23.60;;;-1.70;99.90;;;;;;5051814;28;20271;-77
2022/01/13 06:03:11;;;;;;;42.28;24.48;;;-1.70;99.90;;;;;;5052415;28;20761;-77
2022/01/13 06:05:38;;;;;;;36.25;21.75;;;-1.70;99.90;;;;;;5053531;28;20689;-77
2022/01/13 06:08:05;;;;;;;42.17;23.55;;;-1.70;99.90;;;;;;5053587;28;20210;-77
2022/01/13 06:10:32;;;;;;;35.70;22.20;;;-1.70;99.90;;;;;;5057616;28;20697;-76
2022/01/13 06:12:59;;;;;;;44.65;24.23;;;-1.80;99.90;;;;;;5056216;28;20237;-76
2022/01/13 06:15:27;;;;;;;43.03;24.15;;;-1.80;99.90;;;;;;5058209;28;20230;-78
2022/01/13 06:17:56;;;;;;;44.30;25.02;;;-1.80;99.90;;;;;;5057704;28;20210;-77
2022/01/13 06:20:24;;;;;;;41.45;23.73;;;-1.80;99.90;;;;;;5059173;28;20282;-75
2022/01/13 06:22:52;;;;;;;40.78;23.90;;;-1.80;99.90;;;;;;5059803;28;20233;-76
2022/01/13 06:25:19;;;;;;;41.97;24.52;;;-1.80;99.90;;;;;;5060698;28;20261;-75
2022/01/13 06:27:46;;;;;;;42.33;25.90;;;-1.80;99.90;;;;;;5059736;28;20281;-78
2022/01/13 06:30:15;;;;;;;42.13;23.58;;;-1.80;99.90;;;;;;5059426;28;20554;-76
2022/01/13 06:32:44;;;;;;;41.05;24.08;;;-1.80;99.90;;;;;;5059489;28;20202;-76
2022/01/13 06:35:12;;;;;;;40.20;22.45;;;-1.80;99.90;;;;;;5062082;28;20320;-76
2022/01/13 06:37:40;;;;;;;44.40;23.27;;;-1.80;99.90;;;;;;5065657;28;20282;-76
2022/01/13 06:40:09;;;;;;;44.97;25.20;;;-1.80;99.90;;;;;;5063161;28;20234;-76
2022/01/13 06:42:37;;;;;;;40.20;23.80;;;-1.80;99.90;;;;;;5072160;28;20245;-76
2022/01/13 06:45:05;;;;;;;43.90;24.88;;;-1.80;99.90;;;;;;5076533;28;20202;-76
2022/01/13 06:47:32;;;;;;;34.58;22.27;;;-1.80;99.90;;;;;;5079267;28;20198;-75
2022/01/13 06:50:00;;;;;;;42.63;22.60;;;-1.80;99.90;;;;;;5078331;28;20206;-77
2022/01/13 06:52:27;;;;;;;41.13;25.38;;;-1.90;99.90;;;;;;5069832;28;20232;-75
2022/01/13 06:54:54;;;;;;;39.05;23.90;;;-1.80;99.90;;;;;;5063341;28;20662;-77
2022/01/13 06:57:21;;;;;;;39.55;22.73;;;-1.80;99.90;;;;;;5061390;28;20274;-75
2022/01/13 06:59:48;;;;;;;42.75;24.90;;;-1.80;99.90;;;;;;5060360;28;20210;-77
2022/01/13 07:02:15;;;;;;;43.35;24.70;;;-1.90;99.90;;;;;;5059100;28;20301;-77
2022/01/13 07:04:42;;;;;;;40.45;24.50;;;-1.90;99.90;;;;;;5058862;28;20245;-75
2022/01/13 07:07:11;;;;;;;42.58;23.55;;;-1.80;99.90;;;;;;5058326;28;20666;-76
2022/01/13 07:09:38;;;;;;;41.65;23.92;;;-1.80;99.90;;;;;;5060156;28;20582;-76
2022/01/13 07:12:05;;;;;;;49.03;25.58;;;-1.80;99.90;;;;;;5057889;28;20234;-77
2022/01/13 07:14:32;;;;;;;45.13;25.98;;;-1.80;99.90;;;;;;5058339;28;20226;-76
2022/01/13 07:16:59;;;;;;;48.58;25.15;;;-1.80;99.90;;;;;;5058532;28;20234;-77
2022/01/13 07:19:26;;;;;;;41.83;23.75;;;-1.80;99.90;;;;;;5057838;28;20209;-76
2022/01/13 07:21:53;;;;;;;43.83;25.02;;;-1.80;99.90;;;;;;5058702;28;20217;-77
2022/01/13 07:24:21;;;;;;;42.85;24.08;;;-1.80;99.90;;;;;;5074301;28;20234;-76
2022/01/13 07:26:48;;;;;;;42.65;23.70;;;-1.90;99.90;;;;;;5055246;28;20207;-76
2022/01/13 07:29:15;;;;;;;43.42;24.75;;;-1.90;99.90;;;;;;5070636;28;20201;-78
2022/01/13 07:31:42;;;;;;;40.90;24.45;;;-1.90;99.90;;;;;;5070879;28;20264;-80
2022/01/13 07:34:09;;;;;;;45.38;27.08;;;-1.80;99.90;;;;;;5074844;28;20486;-76
2022/01/13 07:36:38;;;;;;;39.95;24.13;;;-1.90;99.90;;;;;;5075256;28;20222;-75
2022/01/13 07:39:06;;;;;;;42.97;24.27;;;-1.90;99.90;;;;;;5070322;28;20205;-76
2022/01/13 07:41:36;;;;;;;43.72;25.65;;;-1.90;99.90;;;;;;5068090;28;20210;-75
2022/01/13 07:44:03;;;;;;;42.40;26.33;;;-1.80;99.90;;;;;;5060353;28;20223;-77
2022/01/13 07:46:30;;;;;;;42.83;26.48;;;-1.80;99.90;;;;;;5053733;28;20209;-76
2022/01/13 07:48:57;;;;;;;42.38;24.98;;;-1.80;99.90;;;;;;5063671;28;20337;-76
2022/01/13 07:51:24;;;;;;;43.70;26.63;;;-1.80;99.90;;;;;;5069105;28;20252;-74
2022/01/13 07:53:51;;;;;;;46.50;26.35;;;-1.80;99.90;;;;;;5056757;28;20223;-75
2022/01/13 07:56:18;;;;;;;45.95;26.98;;;-1.70;99.90;;;;;;5065016;22;20330;-74
2022/01/13 07:58:46;;;;;;;47.08;27.25;;;-1.70;99.90;;;;;;5035835;28;20290;-76
2022/01/13 08:01:13;;;;;;;44.65;25.98;;;-1.70;99.70;;;;;;5035183;28;20214;-76
2022/01/13 08:03:41;;;;;;;51.42;28.00;;;-1.70;99.80;;;;;;5035247;28;20203;-75
2022/01/13 08:06:08;;;;;;;45.80;26.30;;;-1.70;99.50;;;;;;5029512;28;20266;-75
2022/01/13 08:08:36;;;;;;;51.28;28.23;;;-1.70;99.40;;;;;;5022976;28;20346;-75
2022/01/13 08:11:03;;;;;;;46.63;25.63;;;-1.60;99.00;;;;;;5019392;28;20714;-76
2022/01/13 08:13:30;;;;;;;40.40;24.38;;;-1.60;98.90;;;;;;5015374;28;20204;-75
2022/01/13 08:16:01;;;;;;;46.85;26.73;;;-1.50;98.70;;;;;;5013750;28;20316;-74
2022/01/13 08:21:12;;;;;;;41.92;24.67;;;-1.40;97.90;;;;;;5016305;28;20227;-74
2022/01/13 08:23:39;;;;;;;41.28;25.60;;;-1.30;97.60;;;;;;5016268;28;20231;-74
2022/01/13 08:26:06;;;;;;;43.75;25.33;;;-1.30;96.80;;;;;;5015828;28;20307;-74
2022/01/13 08:28:41;;;;;;;45.50;26.05;;;-1.30;95.80;;;;;;5015885;28;20212;-78
2022/01/13 08:31:09;;;;;;;53.03;27.48;;;-1.20;94.70;;;;;;5015065;28;20214;-76
2022/01/13 08:33:36;;;;;;;41.97;24.27;;;-1.10;94.40;;;;;;5015289;28;20302;-74
2022/01/13 08:36:04;;;;;;;46.10;26.17;;;-1.10;93.80;;;;;;5014456;28;20307;-75
2022/01/13 08:38:30;;;;;;;43.33;23.80;;;-1.00;93.40;;;;;;5013229;28;20242;-74
2022/01/13 08:40:59;;;;;;;46.45;25.33;;;-1.00;92.90;;;;;;5014411;28;20683;-75
2022/01/13 08:43:27;;;;;;;43.83;25.80;;;-0.90;92.30;;;;;;5020944;28;20271;-76
2022/01/13 08:45:55;;;;;;;45.13;24.98;;;-0.80;91.70;;;;;;5026016;28;20251;-75
2022/01/13 08:48:23;;;;;;;39.50;25.88;;;-0.70;91.20;;;;;;5015381;28;20216;-75
2022/01/13 08:50:50;;;;;;;39.40;23.30;;;-0.70;90.90;;;;;;5014033;28;20566;-75
2022/01/13 08:53:18;;;;;;;42.22;24.05;;;-0.60;90.60;;;;;;5014128;28;20675;-75
2022/01/13 08:55:45;;;;;;;38.75;24.77;;;-0.50;90.20;;;;;;5014143;28;20242;-75
2022/01/13 08:58:13;;;;;;;39.08;23.17;;;-0.40;89.10;;;;;;5012409;28;20212;-74
2022/01/13 09:00:40;;;;;;;40.67;22.40;;;-0.30;88.40;;;;;;5012920;28;20218;-78
2022/01/13 09:03:08;;;;;;;40.63;24.40;;;-0.20;87.60;;;;;;5013392;28;20203;-75
2022/01/13 09:05:37;;;;;;;38.15;23.77;;;-0.10;86.20;;;;;;5011562;28;20232;-75
2022/01/13 09:08:05;;;;;;;33.83;23.33;;;-0.10;84.60;;;;;;5013505;28;20302;-75
2022/01/13 09:10:32;;;;;;;38.40;25.17;;;0.00;83.80;;;;;;5015729;28;20208;-76
2022/01/13 09:12:59;;;;;;;38.50;22.25;;;0.00;82.80;;;;;;5015086;28;20247;-74
2022/01/13 09:15:34;;;;;;;41.83;22.45;;;0.10;83.10;;;;;;5013871;28;20251;-76
2022/01/13 09:18:13;;;;;;;33.83;22.02;;;0.30;81.60;;;;;;5015385;28;20626;-77
2022/01/13 09:20:48;;;;;;;32.85;22.40;;;0.30;80.90;;;;;;5015347;28;20552;-82
2022/01/13 09:23:15;;;;;;;38.05;20.88;;;0.40;80.10;;;;;;5018091;28;20203;-77
2022/01/13 09:25:45;;;;;;;27.60;17.77;;;0.40;79.10;;;;;;5023185;28;20310;-81
2022/01/13 09:28:12;;;;;;;36.08;22.00;;;0.50;78.50;;;;;;5017438;28;20276;-76
2022/01/13 09:30:39;;;;;;;37.15;21.90;;;0.60;77.70;;;;;;5022302;28;20204;-75
2022/01/13 09:33:07;;;;;;;38.58;22.42;;;0.70;77.80;;;;;;5019184;28;20204;-76
2022/01/13 09:35:34;;;;;;;31.23;21.13;;;0.80;77.50;;;;;;5031685;28;20236;-79
2022/01/13 09:38:03;;;;;;;32.10;21.50;;;0.90;77.00;;;;;;5012603;28;20200;-76
2022/01/13 09:40:30;;;;;;;34.20;21.85;;;1.00;76.20;;;;;;5016067;28;20212;-77
2022/01/13 09:42:58;;;;;;;33.42;20.73;;;1.00;75.60;;;;;;5025622;28;20206;-76
2022/01/13 09:45:24;;;;;;;36.92;22.17;;;1.10;75.30;;;;;;5030014;28;20227;-75
2022/01/13 09:47:52;;;;;;;31.90;20.30;;;1.20;74.20;;;;;;5016787;28;20699;-76
2022/01/13 09:50:21;;;;;;;27.25;17.60;;;1.30;73.90;;;;;;5013729;28;20565;-75
2022/01/13 09:52:49;;;;;;;31.42;19.92;;;1.40;73.40;;;;;;5012756;28;20330;-76
2022/01/13 09:55:18;;;;;;;30.13;19.77;;;1.40;72.70;;;;;;5012180;28;20323;-77
2022/01/13 09:57:47;;;;;;;28.40;19.52;;;1.50;72.40;;;;;;5013140;28;20200;-73
2022/01/13 10:00:17;;;;;;;27.85;17.80;;;1.60;72.20;;;;;;5013264;28;20250;-74
2022/01/13 10:02:44;;;;;;;31.50;18.58;;;1.60;72.00;;;;;;5012925;28;20207;-75
2022/01/13 10:05:11;;;;;;;27.88;19.40;;;1.70;71.80;;;;;;5013212;28;20232;-75
2022/01/13 10:07:41;;;;;;;29.50;19.17;;;1.70;71.40;;;;;;5013062;28;20203;-76
2022/01/13 10:10:12;;;;;;;28.85;19.38;;;1.70;71.90;;;;;;5013210;28;20226;-75
2022/01/13 10:12:43;;;;;;;28.10;18.35;;;1.80;72.10;;;;;;5012355;28;20251;-75
2022/01/13 10:17:56;;;;;;;30.73;19.17;;;2.00;71.40;;;;;;5013220;28;20582;-75
2022/01/13 10:20:23;;;;;;;26.88;17.48;;;2.10;71.40;;;;;;5016181;28;20291;-77
2022/01/13 10:22:51;;;;;;;28.48;17.83;;;2.20;71.20;;;;;;5027154;28;20200;-79
2022/01/13 10:25:30;;;;;;;24.90;17.67;;;2.20;71.20;;;;;;5027642;28;20258;-78
2022/01/13 10:28:15;;;;;;;28.80;17.20;;;2.30;70.70;;;;;;5022846;28;20531;-77
2022/01/13 10:30:48;;;;;;;27.33;19.02;;;2.40;70.80;;;;;;5015068;28;20259;-75
2022/01/13 10:33:17;;;;;;;23.45;16.25;;;2.50;70.90;;;;;;5010940;28;20197;-76
2022/01/13 10:35:44;;;;;;;26.52;14.98;;;2.70;71.00;;;;;;5004003;28;20232;-75
2022/01/13 10:38:16;;;;;;;23.95;13.80;;;2.70;71.00;;;;;;4997590;28;20690;-77
2022/01/13 10:40:46;;;;;;;18.67;11.93;;;2.90;70.60;;;;;;5007920;28;20572;-77
2022/01/13 10:43:16;;;;;;;22.48;13.23;;;2.90;70.10;;;;;;5013703;28;20648;-76
2022/01/13 10:45:48;;;;;;;18.63;11.82;;;3.00;69.70;;;;;;5013370;28;20583;-75
2022/01/13 10:48:18;;;;;;;16.13;11.60;;;3.10;69.10;;;;;;5012236;28;20275;-75
2022/01/13 10:50:50;;;;;;;16.27;11.38;;;3.20;68.70;;;;;;5013888;28;20204;-75
2022/01/13 10:53:21;;;;;;;17.05;11.70;;;3.20;68.20;;;;;;5013936;28;20262;-74
2022/01/13 10:55:51;;;;;;;19.10;12.60;;;3.30;67.20;;;;;;5016519;28;20219;-74
2022/01/13 10:58:25;;;;;;;19.45;13.45;;;3.40;66.60;;;;;;5017787;28;20654;-74
2022/01/13 11:00:59;;;;;;;18.00;12.50;;;3.30;66.70;;;;;;5009844;28;20207;-77
2022/01/13 11:03:28;;;;;;;20.77;13.88;;;3.20;66.30;;;;;;5022500;28;20294;-75
2022/01/13 11:05:57;;;;;;;18.05;12.60;;;3.10;66.70;;;;;;5021925;28;20219;-78
2022/01/13 11:08:31;;;;;;;20.58;13.02;;;3.20;67.10;;;;;;5023955;28;20208;-75
2022/01/13 11:11:11;;;;;;;18.48;12.45;;;3.20;66.70;;;;;;5013874;28;20203;-75
2022/01/13 11:13:52;;;;;;;15.13;11.88;;;3.30;66.40;;;;;;5020959;28;20212;-76
2022/01/13 11:16:19;;;;;;;16.67;11.52;;;3.30;66.60;;;;;;5012710;28;20228;-74
2022/01/13 11:18:47;;;;;;;13.70;11.50;;;3.40;66.40;;;;;;5014711;28;20232;-74
2022/01/13 11:21:14;;;;;;;13.65;11.50;;;3.50;66.10;;;;;;5015431;28;20286;-77
2022/01/13 11:23:45;;;;;;;15.40;11.52;;;3.60;66.10;;;;;;5020455;28;20210;-74
2022/01/13 11:26:14;;;;;;;17.75;10.95;;;3.60;65.30;;;;;;5019022;28;20310;-74
2022/01/13 11:28:48;;;;;;;14.38;11.15;;;3.60;65.60;;;;;;5018878;28;20269;-74
2022/01/13 11:31:15;;;;;;;13.48;10.98;;;3.60;65.40;;;;;;5011828;28;20215;-75
2022/01/13 11:33:42;;;;;;;17.40;12.07;;;3.70;64.70;;;;;;5013934;28;20210;-76
2022/01/13 11:36:12;;;;;;;20.65;14.85;;;3.80;64.50;;;;;;5013537;28;20292;-77
2022/01/13 11:38:40;;;;;;;22.58;14.45;;;3.80;63.70;;;;;;5020656;28;20246;-78
2022/01/13 11:41:09;;;;;;;19.98;14.20;;;3.70;63.20;;;;;;5016589;28;20204;-78
2022/01/13 11:43:38;;;;;;;20.27;14.27;;;3.80;63.30;;;;;;5015445;28;20203;-77
2022/01/13 11:46:21;;;;;;;22.85;13.95;;;3.90;63.40;;;;;;5013516;28;20675;-76
2022/01/13 11:49:02;;;;;;;23.35;15.30;;;3.80;63.30;;;;;;5028110;28;20278;-77
2022/01/13 11:51:45;;;;;;;21.55;15.25;;;3.80;63.30;;;;;;5015775;28;20236;-75
2022/01/13 11:54:28;;;;;;;22.40;14.02;;;3.90;63.40;;;;;;5012285;28;20243;-75
2022/01/13 11:57:15;;;;;;;19.83;14.20;;;3.80;63.30;;;;;;5013346;28;20415;-75
2022/01/13 12:00:22;;;;;;;18.38;13.60;;;3.80;63.30;;;;;;5014922;28;20228;-76
2022/01/13 12:02:50;;;;;;;20.52;13.00;;;4.00;63.50;;;;;;5013959;28;20218;-74
2022/01/13 12:05:19;;;;;;;18.10;12.75;;;4.00;63.50;;;;;;5014179;28;20224;-75
2022/01/13 12:07:48;;;;;;;16.55;11.63;;;4.10;63.50;;;;;;5015090;28;20698;-75
2022/01/13 12:10:49;;;;;;;15.00;10.35;;;4.20;63.60;;;;;;5015148;28;20211;-77
2022/01/13 12:13:35;;;;;;;14.00;9.95;;;4.20;63.10;;;;;;5016932;28;20206;-74
2022/01/13 12:16:02;;;;;;;14.35;10.35;;;4.20;63.00;;;;;;5017550;28;20684;-75
2022/01/13 12:18:59;;;;;;;13.23;9.90;;;4.20;62.10;;;;;;5016771;28;20618;-74
2022/01/13 12:21:29;;;;;;;19.50;11.38;;;4.20;62.50;;;;;;5015157;28;20230;-75
2022/01/13 12:23:56;;;;;;;12.48;9.85;;;4.20;62.70;;;;;;5015106;28;20398;-74
2022/01/13 12:26:46;;;;;;;15.18;11.07;;;4.30;62.40;;;;;;5014496;28;20327;-74
2022/01/13 12:29:17;;;;;;;15.68;11.27;;;4.30;62.20;;;;;;5014737;28;20211;-74
2022/01/13 12:31:54;;;;;;;16.73;10.85;;;4.40;61.90;;;;;;5017422;28;20568;-78
2022/01/13 12:34:51;;;;;;;16.40;10.90;;;4.30;62.60;;;;;;5022886;28;20208;-76
2022/01/13 12:37:27;;;;;;;18.00;12.43;;;4.40;61.60;;;;;;5015295;28;20222;-76
2022/01/13 12:39:58;;;;;;;16.35;12.52;;;4.40;61.40;;;;;;5015356;28;20234;-74
2022/01/13 12:42:28;;;;;;;14.25;10.52;;;4.40;61.50;;;;;;5015258;28;20204;-77
2022/01/13 12:47:42;;;;;;;15.80;11.45;;;4.50;61.40;;;;;;5008359;28;20270;-78
2022/01/13 12:50:17;;;;;;;17.08;10.30;;;4.60;61.40;;;;;;5005887;28;20213;-79
2022/01/13 12:52:44;;;;;;;12.15;9.27;;;4.60;61.00;;;;;;5003199;28;20201;-76
2022/01/13 12:55:11;;;;;;;14.68;10.60;;;4.50;60.60;;;;;;5008932;28;20310;-77
2022/01/13 12:57:47;;;;;;;16.50;10.07;;;4.50;61.10;;;;;;5020792;28;20277;-78
2022/01/13 13:00:19;;;;;;;16.40;11.52;;;4.70;61.20;;;;;;5019723;28;20216;-79